M/y Patriot — WD19030 — position and weather

sailwx.info

Track history (hours):
 
Tides and Currents Weather Stations Pressure Air Temp Water Temp Dewpoint Dewpoint Depression Visibility Wind Speed Wind Dir Waves Ship Positions

M/y Patriot

Last reported at 2018-Jun-17 16:52 UTC. Time now 2018-Jun-19 12:30 UTC.
Position N 42°22' W 071°03'.

Length 26 m; draft 1.8 m.

Type: Pleasure craft. MMSI: 367744580.

Date/timePositionNaut miles runAvg speedWind from/ knotsBaromVisibWave heightAir tempDewpointWater temp
2018-Jun-17 16:52N 42°22' W 071°03'0 0.0
2018-Jun-17 16:30N 42°22' W 071°03'0 0.0
2018-Jun-17 16:01N 42°22' W 071°03'0 0.0
2018-Jun-17 15:30N 42°22' W 071°03'0 0.0
2018-Jun-17 15:00N 42°22' W 071°03'0 0.0
2018-Jun-17 14:31N 42°22' W 071°03'0 0.0
2018-Jun-17 14:00N 42°22' W 071°03'0 0.0
2018-Jun-17 13:30N 42°22' W 071°03'0 0.0
2018-Jun-17 13:00N 42°22' W 071°03'0 0.0
2018-Jun-17 12:30N 42°22' W 071°03'3 6.4
2018-Jun-17 12:00N 42°20' W 070°60'1020.5
2018-Jun-17 11:31N 42°17' W 070°47'1121.3
2018-Jun-17 11:00N 42°11' W 070°35'1121.5
2018-Jun-17 10:30N 42°06' W 070°22'105 5.6
2018-Jun-16 15:45N 41°11' W 072°22'519.1
2018-Jun-16 15:30N 41°10' W 072°29'7115.7
2018-Jun-16 10:57N 40°46' W 073°57'4 8.6
2018-Jun-16 10:31N 40°42' W 073°60'3 0.1
2018-Jun-14 21:30N 40°45' W 074°01'3 6.5
2018-Jun-14 21:00N 40°42' W 074°02'5 9.4
2018-Jun-14 20:30N 40°37' W 074°03'5911.1
2018-Jun-14 15:13N 39°38' W 074°01'199 8.2
2018-Jun-13 14:50N 36°52' W 076°19'3 8.6
2018-Jun-13 14:30N 36°49' W 076°17'3 6.3
2018-Jun-13 14:00N 36°46' W 076°18'114 4.9
2018-Jun-12 14:52N 34°54' W 076°41'3 8.8
2018-Jun-12 14:30N 34°51' W 076°41'2 4.5
2018-Jun-12 14:00N 34°48' W 076°41'0 0.0
2018-Jun-12 13:30N 34°48' W 076°41'0 0.0
2018-Jun-12 13:00N 34°48' W 076°41'0 0.0
2018-Jun-12 12:30N 34°48' W 076°41'0 0.0
2018-Jun-12 12:00N 34°48' W 076°41'0 0.0
2018-Jun-12 11:30N 34°48' W 076°41'0 0.0
2018-Jun-12 01:37N 34°48' W 076°41'0 0.0
2018-Jun-12 01:30N 34°48' W 076°41'0 0.0
2018-Jun-12 01:00N 34°48' W 076°41'0 0.0
2018-Jun-12 00:30N 34°48' W 076°41'0 0.0
2018-Jun-12 00:00N 34°48' W 076°41'0 0.0
2018-Jun-11 23:30N 34°48' W 076°41'0 0.0
2018-Jun-11 23:00N 34°48' W 076°41'0 0.0
2018-Jun-11 22:29N 34°48' W 076°41'0 0.0
2018-Jun-11 22:00N 34°48' W 076°41'0 0.0
2018-Jun-11 19:56N 34°48' W 076°41'0 0.0
2018-Jun-11 19:30N 34°48' W 076°41'0 0.0
2018-Jun-11 19:00N 34°48' W 076°41'0 0.0
2018-Jun-11 18:30N 34°48' W 076°41'0 0.0
2018-Jun-11 17:01N 34°48' W 076°41'0 0.0
2018-Jun-11 16:30N 34°48' W 076°41'0 0.0
2018-Jun-11 16:00N 34°48' W 076°41'0 0.0
2018-Jun-11 15:30N 34°48' W 076°41'0 0.0
2018-Jun-11 15:00N 34°48' W 076°41'0 0.0
2018-Jun-11 14:30N 34°48' W 076°41'0 0.0
2018-Jun-11 14:01N 34°48' W 076°41'0 0.0
2018-Jun-11 13:31N 34°48' W 076°41'0 0.0
2018-Jun-11 13:01N 34°48' W 076°41'0 0.0
2018-Jun-11 12:30N 34°48' W 076°41'0 0.0
2018-Jun-11 12:01N 34°48' W 076°41'1 2.8
2018-Jun-11 11:30N 34°47' W 076°41'611.5
2018-Jun-11 11:01N 34°41' W 076°40'53213.6
2018-Jun-09 19:48N 26°18' W 080°00'515.3
2018-Jun-09 19:31N 26°13' W 080°01'714.1
2018-Jun-09 19:00N 26°07' W 080°04'3 6.0
2018-Jun-09 18:31N 26°06' W 080°07'0 0.0
2018-Jun-09 17:59N 26°06' W 080°07'0 0.0
2018-Jun-09 17:31N 26°06' W 080°07'0 0.0
2018-Jun-09 16:58N 26°06' W 080°07'0 0.0
2018-Jun-09 16:29N 26°06' W 080°07'0 0.0
2018-Jun-09 16:00N 26°06' W 080°07'0 0.0
2018-Jun-09 15:30N 26°06' W 080°07'0 0.0
2018-Jun-09 14:30N 26°06' W 080°07'0 0.0
2018-Jun-09 14:00N 26°06' W 080°07'0 0.0
2018-Jun-09 13:29N 26°06' W 080°07'0 0.0
2018-Jun-09 12:59N 26°06' W 080°07'0 0.0
2018-Jun-09 12:30N 26°06' W 080°07'0 0.0
2018-Jun-09 12:00N 26°06' W 080°07'0 0.0
2018-Jun-09 11:30N 26°06' W 080°07'0 0.0
2018-Jun-09 11:00N 26°06' W 080°07'0 0.0
2018-Jun-09 10:30N 26°06' W 080°07'0 0.0
2018-Jun-09 10:00N 26°06' W 080°07'0 0.0
2018-Jun-09 09:30N 26°06' W 080°07'0 0.0
2018-Jun-09 09:00N 26°06' W 080°07'0 0.0
2018-Jun-09 08:29N 26°06' W 080°07'0 0.0
2018-Jun-09 08:00N 26°06' W 080°07'0 0.0
2018-Jun-09 07:31N 26°06' W 080°07'0 0.0
2018-Jun-09 07:01N 26°06' W 080°07'0 0.0
2018-Jun-09 06:31N 26°06' W 080°07'0 0.0
2018-Jun-09 06:00N 26°06' W 080°07'0 0.0
2018-Jun-09 05:30N 26°06' W 080°07'0 0.0
2018-Jun-09 05:01N 26°06' W 080°07'0 0.0
2018-Jun-09 04:29N 26°06' W 080°07'0 0.0
2018-Jun-09 04:00N 26°06' W 080°07'0 0.0
2018-Jun-09 03:31N 26°06' W 080°07'0 0.0
2018-Jun-09 02:59N 26°06' W 080°07'0 0.0
2018-Jun-09 02:30N 26°06' W 080°07'0 0.0
2018-Jun-09 01:59N 26°06' W 080°07'0 0.0
2018-Jun-09 01:30N 26°06' W 080°07'0 0.0
2018-Jun-09 01:00N 26°06' W 080°07'0 0.0
2018-Jun-09 00:30N 26°06' W 080°07'0 0.0
2018-Jun-08 23:59N 26°06' W 080°07'0 0.0
2018-Jun-08 23:30N 26°06' W 080°07'0 0.0
2018-Jun-08 23:00N 26°06' W 080°07'0 0.0
2018-Jun-08 22:30N 26°06' W 080°07'0 0.0
2018-Jun-08 22:00N 26°06' W 080°07'0 0.0
2018-Jun-08 21:30N 26°06' W 080°07'0 0.0
2018-Jun-08 21:00N 26°06' W 080°07'0 0.0
2018-Jun-08 20:29N 26°06' W 080°07'0 0.0
2018-Jun-08 20:00N 26°06' W 080°07'0 0.0
2018-Jun-08 19:30N 26°06' W 080°07'0 0.0
2018-Jun-08 19:00N 26°06' W 080°07'0 0.0
2018-Jun-08 18:31N 26°06' W 080°07'1 2.1
2018-Jun-08 18:00N 26°06' W 080°06'2 3.7
2018-Jun-08 17:30N 26°07' W 080°07'2 3.7
2018-Jun-08 17:00N 26°07' W 080°09'2 3.5
2018-Jun-08 16:30N 26°05' W 080°11'0 0.5
2018-Jun-08 15:49N 26°05' W 080°11'0 0.0
2018-Jun-08 15:22N 26°05' W 080°11'0 0.1
2018-Jun-08 15:00N 26°05' W 080°11'0 0.0
2018-Jun-08 14:05N 26°05' W 080°11'0 0.0
2018-Jun-08 13:49N 26°05' W 080°11'0 0.1
2018-Jun-08 13:30N 26°05' W 080°11'0 0.1
2018-Jun-08 12:53N 26°05' W 080°11'0 0.1
2018-Jun-08 12:26N 26°05' W 080°11'0 0.1
2018-Jun-08 11:59N 26°05' W 080°11'0 0.1
2018-Jun-08 11:30N 26°05' W 080°11'0 0.0
2018-Jun-08 10:59N 26°05' W 080°11'0 0.0
2018-Jun-08 10:19N 26°05' W 080°11'0 0.1
2018-Jun-08 09:58N 26°05' W 080°11'0 0.1
2018-Jun-08 09:25N 26°05' W 080°11'0 0.1
2018-Jun-08 08:58N 26°05' W 080°11'0 0.1
2018-Jun-08 08:27N 26°05' W 080°11'0 0.1
2018-Jun-08 08:00N 26°05' W 080°11'0 0.1
2018-Jun-08 07:28N 26°05' W 080°11'0 0.1
2018-Jun-08 06:57N 26°05' W 080°11'0 0.1
2018-Jun-08 06:16N 26°05' W 080°11'0 0.2
2018-Jun-08 06:00N 26°05' W 080°11'0 0.1
2018-Jun-08 05:30N 26°05' W 080°11'0 0.1
2018-Jun-08 04:19N 26°05' W 080°11'0 0.1
2018-Jun-08 03:27N 26°05' W 080°11'0 0.0
2018-Jun-08 02:53N 26°05' W 080°11'0 0.0
2018-Jun-08 02:30N 26°05' W 080°11'0 0.1
2018-Jun-08 01:51N 26°05' W 080°11'0 0.1
2018-Jun-08 01:21N 26°05' W 080°11'0 0.0
2018-Jun-08 00:56N 26°05' W 080°11'0 0.1
2018-Jun-08 00:28N 26°05' W 080°11'0 0.0
2018-Jun-08 00:01N 26°05' W 080°11'0 0.1
2018-Jun-07 23:30N 26°05' W 080°11'0 0.1
2018-Jun-07 22:57N 26°05' W 080°11'0 0.0
2018-Jun-07 22:28N 26°05' W 080°11'0 0.0
2018-Jun-07 21:50N 26°05' W 080°11'0 0.1
2018-Jun-07 21:22N 26°05' W 080°11'0 0.0
2018-Jun-07 20:19N 26°05' W 080°11'0 0.0
2018-Jun-07 19:58N 26°05' W 080°11'0 0.1
2018-Jun-07 19:26N 26°05' W 080°11'0 0.0
2018-Jun-07 19:00N 26°05' W 080°11'0 0.0
2018-Jun-07 18:29N 26°05' W 080°11'0 0.1
2018-Jun-07 18:00N 26°05' W 080°11'0 0.0
2018-Jun-07 17:29N 26°05' W 080°11'  
Track history (hours):
 
Tides and Currents Weather Stations Pressure Air Temp Water Temp Dewpoint Dewpoint Depression Visibility Wind Speed Wind Dir Waves Ship Positions

M/y Patriot

Last reported at 2018-Jun-17 16:52 UTC. Time now 2018-Jun-19 12:30 UTC.
Position N 42°22' W 071°03'.

Length 26 m; draft 1.8 m.

Type: Pleasure craft. MMSI: 367744580.

Date/timePositionNaut miles runAvg speedWind from/ knotsBaromVisibWave heightAir tempDewpointWater temp
2018-Jun-17 16:52N 42°22' W 071°03'0 0.0
2018-Jun-17 16:30N 42°22' W 071°03'0 0.0
2018-Jun-17 16:01N 42°22' W 071°03'0 0.0
2018-Jun-17 15:30N 42°22' W 071°03'0 0.0
2018-Jun-17 15:00N 42°22' W 071°03'0 0.0
2018-Jun-17 14:31N 42°22' W 071°03'0 0.0
2018-Jun-17 14:00N 42°22' W 071°03'0 0.0
2018-Jun-17 13:30N 42°22' W 071°03'0 0.0
2018-Jun-17 13:00N 42°22' W 071°03'0 0.0
2018-Jun-17 12:30N 42°22' W 071°03'3 6.4
2018-Jun-17 12:00N 42°20' W 070°60'1020.5
2018-Jun-17 11:31N 42°17' W 070°47'1121.3
2018-Jun-17 11:00N 42°11' W 070°35'1121.5
2018-Jun-17 10:30N 42°06' W 070°22'105 5.6
2018-Jun-16 15:45N 41°11' W 072°22'519.1
2018-Jun-16 15:30N 41°10' W 072°29'7115.7
2018-Jun-16 10:57N 40°46' W 073°57'4 8.6
2018-Jun-16 10:31N 40°42' W 073°60'3 0.1
2018-Jun-14 21:30N 40°45' W 074°01'3 6.5
2018-Jun-14 21:00N 40°42' W 074°02'5 9.4
2018-Jun-14 20:30N 40°37' W 074°03'5911.1
2018-Jun-14 15:13N 39°38' W 074°01'199 8.2
2018-Jun-13 14:50N 36°52' W 076°19'3 8.6
2018-Jun-13 14:30N 36°49' W 076°17'3 6.3
2018-Jun-13 14:00N 36°46' W 076°18'114 4.9
2018-Jun-12 14:52N 34°54' W 076°41'3 8.8
2018-Jun-12 14:30N 34°51' W 076°41'2 4.5
2018-Jun-12 14:00N 34°48' W 076°41'0 0.0
2018-Jun-12 13:30N 34°48' W 076°41'0 0.0
2018-Jun-12 13:00N 34°48' W 076°41'0 0.0
2018-Jun-12 12:30N 34°48' W 076°41'0 0.0
2018-Jun-12 12:00N 34°48' W 076°41'0 0.0
2018-Jun-12 11:30N 34°48' W 076°41'0 0.0
2018-Jun-12 01:37N 34°48' W 076°41'0 0.0
2018-Jun-12 01:30N 34°48' W 076°41'0 0.0
2018-Jun-12 01:00N 34°48' W 076°41'0 0.0
2018-Jun-12 00:30N 34°48' W 076°41'0 0.0
2018-Jun-12 00:00N 34°48' W 076°41'0 0.0
2018-Jun-11 23:30N 34°48' W 076°41'0 0.0
2018-Jun-11 23:00N 34°48' W 076°41'0 0.0
2018-Jun-11 22:29N 34°48' W 076°41'0 0.0
2018-Jun-11 22:00N 34°48' W 076°41'0 0.0
2018-Jun-11 19:56N 34°48' W 076°41'0 0.0
2018-Jun-11 19:30N 34°48' W 076°41'0 0.0
2018-Jun-11 19:00N 34°48' W 076°41'0 0.0
2018-Jun-11 18:30N 34°48' W 076°41'0 0.0
2018-Jun-11 17:01N 34°48' W 076°41'0 0.0
2018-Jun-11 16:30N 34°48' W 076°41'0 0.0
2018-Jun-11 16:00N 34°48' W 076°41'0 0.0
2018-Jun-11 15:30N 34°48' W 076°41'0 0.0
2018-Jun-11 15:00N 34°48' W 076°41'0 0.0
2018-Jun-11 14:30N 34°48' W 076°41'0 0.0
2018-Jun-11 14:01N 34°48' W 076°41'0 0.0
2018-Jun-11 13:31N 34°48' W 076°41'0 0.0
2018-Jun-11 13:01N 34°48' W 076°41'0 0.0
2018-Jun-11 12:30N 34°48' W 076°41'0 0.0
2018-Jun-11 12:01N 34°48' W 076°41'1 2.8
2018-Jun-11 11:30N 34°47' W 076°41'611.5
2018-Jun-11 11:01N 34°41' W 076°40'53213.6
2018-Jun-09 19:48N 26°18' W 080°00'515.3
2018-Jun-09 19:31N 26°13' W 080°01'714.1
2018-Jun-09 19:00N 26°07' W 080°04'3 6.0
2018-Jun-09 18:31N 26°06' W 080°07'0 0.0
2018-Jun-09 17:59N 26°06' W 080°07'0 0.0
2018-Jun-09 17:31N 26°06' W 080°07'0 0.0
2018-Jun-09 16:58N 26°06' W 080°07'0 0.0
2018-Jun-09 16:29N 26°06' W 080°07'0 0.0
2018-Jun-09 16:00N 26°06' W 080°07'0 0.0
2018-Jun-09 15:30N 26°06' W 080°07'0 0.0
2018-Jun-09 14:30N 26°06' W 080°07'0 0.0
2018-Jun-09 14:00N 26°06' W 080°07'0 0.0
2018-Jun-09 13:29N 26°06' W 080°07'0 0.0
2018-Jun-09 12:59N 26°06' W 080°07'0 0.0
2018-Jun-09 12:30N 26°06' W 080°07'0 0.0
2018-Jun-09 12:00N 26°06' W 080°07'0 0.0
2018-Jun-09 11:30N 26°06' W 080°07'0 0.0
2018-Jun-09 11:00N 26°06' W 080°07'0 0.0
2018-Jun-09 10:30N 26°06' W 080°07'0 0.0
2018-Jun-09 10:00N 26°06' W 080°07'0 0.0
2018-Jun-09 09:30N 26°06' W 080°07'0 0.0
2018-Jun-09 09:00N 26°06' W 080°07'0 0.0
2018-Jun-09 08:29N 26°06' W 080°07'0 0.0
2018-Jun-09 08:00N 26°06' W 080°07'0 0.0
2018-Jun-09 07:31N 26°06' W 080°07'0 0.0
2018-Jun-09 07:01N 26°06' W 080°07'0 0.0
2018-Jun-09 06:31N 26°06' W 080°07'0 0.0
2018-Jun-09 06:00N 26°06' W 080°07'0 0.0
2018-Jun-09 05:30N 26°06' W 080°07'0 0.0
2018-Jun-09 05:01N 26°06' W 080°07'0 0.0
2018-Jun-09 04:29N 26°06' W 080°07'0 0.0
2018-Jun-09 04:00N 26°06' W 080°07'0 0.0
2018-Jun-09 03:31N 26°06' W 080°07'0 0.0
2018-Jun-09 02:59N 26°06' W 080°07'0 0.0
2018-Jun-09 02:30N 26°06' W 080°07'0 0.0
2018-Jun-09 01:59N 26°06' W 080°07'0 0.0
2018-Jun-09 01:30N 26°06' W 080°07'0 0.0
2018-Jun-09 01:00N 26°06' W 080°07'0 0.0
2018-Jun-09 00:30N 26°06' W 080°07'0 0.0
2018-Jun-08 23:59N 26°06' W 080°07'0 0.0
2018-Jun-08 23:30N 26°06' W 080°07'0 0.0
2018-Jun-08 23:00N 26°06' W 080°07'0 0.0
2018-Jun-08 22:30N 26°06' W 080°07'0 0.0
2018-Jun-08 22:00N 26°06' W 080°07'0 0.0
2018-Jun-08 21:30N 26°06' W 080°07'0 0.0
2018-Jun-08 21:00N 26°06' W 080°07'0 0.0
2018-Jun-08 20:29N 26°06' W 080°07'0 0.0
2018-Jun-08 20:00N 26°06' W 080°07'0 0.0
2018-Jun-08 19:30N 26°06' W 080°07'0 0.0
2018-Jun-08 19:00N 26°06' W 080°07'0 0.0
2018-Jun-08 18:31N 26°06' W 080°07'1 2.1
2018-Jun-08 18:00N 26°06' W 080°06'2 3.7
2018-Jun-08 17:30N 26°07' W 080°07'2 3.7
2018-Jun-08 17:00N 26°07' W 080°09'2 3.5
2018-Jun-08 16:30N 26°05' W 080°11'0 0.5
2018-Jun-08 15:49N 26°05' W 080°11'0 0.0
2018-Jun-08 15:22N 26°05' W 080°11'0 0.1
2018-Jun-08 15:00N 26°05' W 080°11'0 0.0
2018-Jun-08 14:05N 26°05' W 080°11'0 0.0
2018-Jun-08 13:49N 26°05' W 080°11'0 0.1
2018-Jun-08 13:30N 26°05' W 080°11'0 0.1
2018-Jun-08 12:53N 26°05' W 080°11'0 0.1
2018-Jun-08 12:26N 26°05' W 080°11'0 0.1
2018-Jun-08 11:59N 26°05' W 080°11'0 0.1
2018-Jun-08 11:30N 26°05' W 080°11'0 0.0
2018-Jun-08 10:59N 26°05' W 080°11'0 0.0
2018-Jun-08 10:19N 26°05' W 080°11'0 0.1
2018-Jun-08 09:58N 26°05' W 080°11'0 0.1
2018-Jun-08 09:25N 26°05' W 080°11'0 0.1
2018-Jun-08 08:58N 26°05' W 080°11'0 0.1
2018-Jun-08 08:27N 26°05' W 080°11'0 0.1
2018-Jun-08 08:00N 26°05' W 080°11'0 0.1
2018-Jun-08 07:28N 26°05' W 080°11'0 0.1
2018-Jun-08 06:57N 26°05' W 080°11'0 0.1
2018-Jun-08 06:16N 26°05' W 080°11'0 0.2
2018-Jun-08 06:00N 26°05' W 080°11'0 0.1
2018-Jun-08 05:30N 26°05' W 080°11'0 0.1
2018-Jun-08 04:19N 26°05' W 080°11'0 0.1
2018-Jun-08 03:27N 26°05' W 080°11'0 0.0
2018-Jun-08 02:53N 26°05' W 080°11'0 0.0
2018-Jun-08 02:30N 26°05' W 080°11'0 0.1
2018-Jun-08 01:51N 26°05' W 080°11'0 0.1
2018-Jun-08 01:21N 26°05' W 080°11'0 0.0
2018-Jun-08 00:56N 26°05' W 080°11'0 0.1
2018-Jun-08 00:28N 26°05' W 080°11'0 0.0
2018-Jun-08 00:01N 26°05' W 080°11'0 0.1
2018-Jun-07 23:30N 26°05' W 080°11'0 0.1
2018-Jun-07 22:57N 26°05' W 080°11'0 0.0
2018-Jun-07 22:28N 26°05' W 080°11'0 0.0
2018-Jun-07 21:50N 26°05' W 080°11'0 0.1
2018-Jun-07 21:22N 26°05' W 080°11'0 0.0
2018-Jun-07 20:19N 26°05' W 080°11'0 0.0
2018-Jun-07 19:58N 26°05' W 080°11'0 0.1
2018-Jun-07 19:26N 26°05' W 080°11'0 0.0
2018-Jun-07 19:00N 26°05' W 080°11'0 0.0
2018-Jun-07 18:29N 26°05' W 080°11'0 0.1
2018-Jun-07 18:00N 26°05' W 080°11'0 0.0
2018-Jun-07 17:29N 26°05' W 080°11'  

Dump ship's entire track history